DEKAY EDDN-

Flight info

Callsign DEKAY
Flight time N/A
Altitude
Route
Aircraft DA62

Departure

Time 2026-05-01 09:05
Airport Nuremberg Airport (EDDN)

Arrival

Time N/A
Airport -
Time Latitude Longitude Altitude Speed Heading
2026-05-01 08:57 49.49460 11.06874 1021 ft 0 kts 278°
2026-05-01 08:58 49.49474 11.06880 1021 ft 3 kts 92°
2026-05-01 09:00 49.49474 11.06891 1021 ft 6 kts 92°
2026-05-01 09:00 49.49519 11.06927 1021 ft 8 kts 35°
2026-05-01 09:00 49.49518 11.06998 1021 ft 6 kts 95°
2026-05-01 09:00 49.49510 11.07091 1021 ft 18 kts 97°
2026-05-01 09:01 49.49556 11.07198 1021 ft 19 kts
2026-05-01 09:01 49.49673 11.07227 1018 ft 17 kts
2026-05-01 09:01 49.49742 11.07145 1016 ft 15 kts 272°
2026-05-01 09:01 49.49758 11.06978 1015 ft 17 kts 280°
2026-05-01 09:02 49.49775 11.06790 1014 ft 18 kts 278°
2026-05-01 09:02 49.49795 11.06597 1015 ft 18 kts 283°
2026-05-01 09:02 49.49876 11.06497 1016 ft 12 kts 338°
2026-05-01 09:02 49.49904 11.06481 1017 ft 0 kts 339°
2026-05-01 09:04 49.49974 11.06499 1018 ft 15 kts 46°
2026-05-01 09:04 49.49980 11.06707 1019 ft 43 kts 98°
2026-05-01 09:04 49.49911 11.07425 1020 ft 87 kts 99°
2026-05-01 09:05 49.49812 11.08469 1078 ft 105 kts 99°
2026-05-01 09:05 49.49701 11.09580 1255 ft 106 kts 99°
2026-05-01 09:05 49.49621 11.10704 1460 ft 107 kts 97°
2026-05-01 09:05 49.49584 11.11798 1730 ft 99 kts 90°
2026-05-01 09:06 49.49804 11.12787 1942 ft 105 kts 45°
2026-05-01 09:06 49.50444 11.12682 1893 ft 106 kts 314°
2026-05-01 09:06 49.50780 11.11577 1673 ft 129 kts 288°
2026-05-01 09:06 49.51076 11.10192 1755 ft 142 kts 285°
2026-05-01 09:07 49.51266 11.08712 1745 ft 124 kts 280°
2026-05-01 09:07 49.51330 11.07477 1759 ft 117 kts 268°
2026-05-01 09:07 49.51288 11.06215 1812 ft 118 kts 265°
2026-05-01 09:07 49.51273 11.04965 1817 ft 112 kts 268°
2026-05-01 09:08 49.51168 11.03953 1524 ft 87 kts 224°
2026-05-01 09:08 49.50649 11.03680 1428 ft 88 kts 173°
2026-05-01 09:08 49.50174 11.04006 1441 ft 72 kts 97°
2026-05-01 09:08 49.50149 11.04911 1266 ft 90 kts 98°
2026-05-01 09:09 49.50067 11.05792 1067 ft 77 kts 100°
2026-05-01 09:09 49.50001 11.06498 1020 ft 54 kts 101°
2026-05-01 09:09 49.49955 11.06938 1019 ft 23 kts 98°
2026-05-01 09:09 49.49891 11.07013 1017 ft 12 kts 186°
2026-05-01 09:10 49.49818 11.07051 1016 ft 9 kts 155°
2026-05-01 09:10 49.49793 11.07067 1016 ft 0 kts 160°
2026-05-01 09:11 49.49792 11.07067 1016 ft 1 kts 160°
2026-05-01 09:11 49.49756 11.07101 1016 ft 13 kts 130°
2026-05-01 09:11 49.49712 11.07235 1017 ft 13 kts 163°
2026-05-01 09:12 49.49636 11.07222 1019 ft 9 kts 184°
2026-05-01 09:12 49.49575 11.07216 1021 ft 14 kts 194°
2026-05-01 09:12 49.49500 11.07158 1021 ft 10 kts 263°
2026-05-01 09:12 49.49512 11.07043 1021 ft 13 kts 279°
2026-05-01 09:13 49.49499 11.06918 1021 ft 7 kts 180°
2026-05-01 09:13 49.49457 11.06891 1021 ft 5 kts 259°
2026-05-01 09:13 49.49460 11.06874 1021 ft 16 kts 278°
2026-05-01 09:22 49.49519 11.06924 1021 ft 10 kts 357°
2026-05-01 09:23 49.49536 11.06981 1021 ft 8 kts 123°
2026-05-01 09:23 49.49541 11.07197 1021 ft 9 kts
2026-05-01 09:24 49.49732 11.07206 1017 ft 13 kts 304°
2026-05-01 09:24 49.49749 11.07066 1016 ft 14 kts 282°
2026-05-01 09:24 49.49777 11.06726 1014 ft 15 kts 268°
2026-05-01 09:25 49.49858 11.06507 1016 ft 14 kts 347°
2026-05-01 09:25 49.49918 11.06476 1017 ft 5 kts 353°
2026-05-01 09:26 49.49997 11.06550 1019 ft 23 kts 85°
2026-05-01 09:26 49.49861 11.07816 1079 ft 93 kts 98°
2026-05-01 09:26 49.49832 11.08803 1275 ft 99 kts 97°
2026-05-01 09:27 49.48893 11.10340 1739 ft 111 kts 147°
2026-05-01 09:27 49.48165 11.10865 1955 ft 118 kts 151°
2026-05-01 09:27 49.47418 11.11373 2227 ft 114 kts 153°
2026-05-01 09:28 49.46928 11.11678 2310 ft 120 kts 153°
2026-05-01 09:28 49.45854 11.12432 2430 ft 128 kts 152°
2026-05-01 09:28 49.45083 11.13068 2432 ft 125 kts 142°
2026-05-01 09:28 49.44455 11.13899 2421 ft 117 kts 133°
2026-05-01 09:29 49.43494 11.15934 2280 ft 115 kts 126°
2026-05-01 09:29 49.43137 11.16561 2258 ft 115 kts 133°
2026-05-01 09:30 49.41828 11.17905 2246 ft 109 kts 141°
2026-05-01 09:30 49.41237 11.18607 2268 ft 104 kts 132°
2026-05-01 09:30 49.40303 11.20180 2410 ft 97 kts 127°
2026-05-01 09:31 49.39879 11.20973 2473 ft 98 kts 127°
2026-05-01 09:31 49.39400 11.21735 2660 ft 110 kts 142°
2026-05-01 09:31 49.37846 11.22514 3133 ft 116 kts 161°
2026-05-01 09:32 49.37040 11.22829 3199 ft 129 kts 153°
2026-05-01 09:32 49.35274 11.23591 3550 ft 138 kts 177°
2026-05-01 09:32 49.34339 11.23065 3687 ft 146 kts 203°
2026-05-01 09:33 49.33542 11.22216 4039 ft 137 kts 210°
2026-05-01 09:33 49.32773 11.21263 4160 ft 145 kts 212°
2026-05-01 09:33 49.30984 11.19979 4379 ft 145 kts 180°
2026-05-01 09:34 49.29945 11.19806 4361 ft 150 kts 180°
2026-05-01 09:34 49.28893 11.19681 4284 ft 156 kts 174°
2026-05-01 09:34 49.26706 11.20146 4152 ft 151 kts 161°
2026-05-01 09:35 49.25697 11.20594 4102 ft 154 kts 161°
2026-05-01 09:35 49.23631 11.21426 4034 ft 160 kts 162°
2026-05-01 09:35 49.22673 11.22146 4077 ft 150 kts 136°
2026-05-01 09:36 49.21870 11.23214 4057 ft 153 kts 136°
2026-05-01 09:36 49.21114 11.24375 3949 ft 155 kts 127°
2026-05-01 09:36 49.20509 11.25635 4200 ft 142 kts 126°
2026-05-01 09:36 49.19719 11.26725 3843 ft 166 kts 147°
2026-05-01 09:37 49.18577 11.27145 3754 ft 167 kts 174°
2026-05-01 09:37 49.16545 11.27452 3946 ft 158 kts 161°
2026-05-01 09:37 49.15422 11.27615 3835 ft 160 kts 174°
2026-05-01 09:38 49.13323 11.27772 3947 ft 155 kts 174°
2026-05-01 09:38 49.12203 11.27674 3734 ft 168 kts 180°
2026-05-01 09:38 49.11148 11.27491 4216 ft 137 kts 176°
2026-05-01 09:39 49.09097 11.26993 4182 ft 159 kts 195°
2026-05-01 09:39 49.08215 11.26130 4614 ft 144 kts 211°
2026-05-01 09:39 49.07444 11.25197 4911 ft 138 kts 207°
2026-05-01 09:40 49.06676 11.24407 5186 ft 129 kts 203°
2026-05-01 09:40 49.05118 11.23029 5832 ft 121 kts 194°
2026-05-01 09:40 49.04324 11.22466 6006 ft 136 kts 203°
2026-05-01 09:41 49.03608 11.21435 6178 ft 141 kts 226°
2026-05-01 09:41 49.03002 11.18574 6397 ft 143 kts 257°
2026-05-01 09:41 49.02846 11.17197 6753 ft 125 kts 257°
2026-05-01 09:42 49.02972 11.15771 6639 ft 150 kts 293°
2026-05-01 09:42 49.03355 11.14267 6686 ft 154 kts 288°
2026-05-01 09:42 49.03432 11.11127 6865 ft 150 kts 248°
2026-05-01 09:43 49.02936 11.08091 7086 ft 148 kts 254°
2026-05-01 09:43 49.02696 11.06549 7114 ft 148 kts 250°
2026-05-01 09:43 49.02304 11.05106 7174 ft 145 kts 232°
2026-05-01 09:44 49.01174 11.02631 7278 ft 142 kts 223°
2026-05-01 09:44 49.00431 11.01699 7387 ft 133 kts 201°
2026-05-01 09:44 48.99588 11.01237 7417 ft 130 kts 185°
2026-05-01 09:45 48.98666 11.01092 7340 ft 138 kts 181°
2026-05-01 09:45 48.96853 11.00646 7499 ft 133 kts 181°
2026-05-01 09:45 48.95936 11.00643 7591 ft 128 kts 164°
2026-05-01 09:46 48.95146 11.01114 7702 ft 122 kts 141°
2026-05-01 09:46 48.94633 11.02144 7662 ft 125 kts 115°
2026-05-01 09:46 48.94238 11.03288 7728 ft 120 kts 116°
2026-05-01 09:46 48.93781 11.04358 7704 ft 122 kts 124°
2026-05-01 09:47 48.93238 11.05332 7711 ft 128 kts 145°
2026-05-01 09:47 48.92328 11.05262 7744 ft 147 kts 205°
2026-05-01 09:47 48.91652 11.04059 7928 ft 141 kts 232°
2026-05-01 09:47 48.91117 11.03024 8280 ft 121 kts 211°
2026-05-01 09:48 48.90362 11.02212 8087 ft 146 kts 210°
2026-05-01 09:48 48.89604 11.01173 8127 ft 147 kts 222°
2026-05-01 09:48 48.88971 10.99995 8296 ft 139 kts 221°
2026-05-01 09:48 48.88371 10.98766 8277 ft 147 kts 232°
2026-05-01 09:49 48.87881 10.97402 8361 ft 147 kts 236°
2026-05-01 09:49 48.87413 10.96004 8388 ft 149 kts 237°
2026-05-01 09:49 48.86856 10.94663 8417 ft 149 kts 232°
2026-05-01 09:49 48.86212 10.93474 8434 ft 147 kts 221°
2026-05-01 09:50 48.85642 10.92175 8458 ft 149 kts 235°
2026-05-01 09:50 48.85094 10.90823 8452 ft 152 kts 233°
2026-05-01 09:50 48.84539 10.89448 8459 ft 153 kts 233°
2026-05-01 09:50 48.83992 10.88057 8438 ft 156 kts 233°
2026-05-01 09:51 48.83434 10.86611 8413 ft 159 kts 234°
2026-05-01 09:51 48.82876 10.85155 8406 ft 159 kts 238°
2026-05-01 09:51 48.82377 10.83669 8398 ft 157 kts 239°
2026-05-01 09:51 48.81894 10.82181 8404 ft 158 kts 239°
2026-05-01 09:52 48.81419 10.80669 8398 ft 159 kts 239°
2026-05-01 09:52 48.80933 10.79175 8398 ft 157 kts 239°
2026-05-01 09:52 48.80447 10.77683 8397 ft 159 kts 239°
2026-05-01 09:52 48.79970 10.76169 8403 ft 159 kts 239°
2026-05-01 09:53 48.79473 10.74663 8395 ft 161 kts 239°
2026-05-01 09:53 48.78964 10.73155 8395 ft 161 kts 238°
2026-05-01 09:53 48.78463 10.71640 8398 ft 162 kts 239°
2026-05-01 09:53 48.77961 10.70126 8390 ft 159 kts 238°
2026-05-01 09:54 48.77460 10.68634 8397 ft 159 kts 239°
2026-05-01 09:54 48.76957 10.67150 8398 ft 157 kts 239°
2026-05-01 09:54 48.76447 10.65676 8391 ft 158 kts 239°
2026-05-01 09:54 48.75941 10.64202 8386 ft 157 kts 238°
2026-05-01 09:55 48.75440 10.62708 8395 ft 161 kts 239°
2026-05-01 09:55 48.74944 10.61189 8387 ft 160 kts 239°
2026-05-01 09:55 48.74437 10.59685 8383 ft 159 kts 239°
2026-05-01 09:55 48.73935 10.58195 8392 ft 158 kts 239°
2026-05-01 09:56 48.73430 10.56693 8389 ft 161 kts 239°
2026-05-01 09:56 48.72941 10.55170 8389 ft 160 kts 239°
2026-05-01 09:56 48.72455 10.53649 8386 ft 160 kts 239°
2026-05-01 09:56 48.71960 10.52144 8392 ft 160 kts 239°
2026-05-01 09:57 48.71453 10.50625 8384 ft 162 kts 239°
2026-05-01 09:57 48.70947 10.49132 8382 ft 158 kts 239°
2026-05-01 09:57 48.70463 10.47656 8384 ft 157 kts 238°
2026-05-01 09:57 48.69994 10.46170 8385 ft 157 kts 239°
2026-05-01 09:58 48.69517 10.44698 8378 ft 154 kts 239°
2026-05-01 09:58 48.69054 10.43236 8378 ft 155 kts 242°
2026-05-01 09:58 48.68655 10.41725 8377 ft 154 kts 244°
2026-05-01 09:58 48.68253 10.40206 8376 ft 156 kts 243°
2026-05-01 09:59 48.67848 10.38691 8376 ft 155 kts 244°
2026-05-01 09:59 48.67445 10.37184 8376 ft 156 kts 243°
2026-05-01 09:59 48.67055 10.35665 8382 ft 158 kts 243°
2026-05-01 09:59 48.66649 10.34092 8385 ft 158 kts 243°
2026-05-01 10:00 48.66239 10.32572 8375 ft 158 kts 243°
2026-05-01 10:00 48.65840 10.31029 8392 ft 159 kts 244°
2026-05-01 10:00 48.65431 10.29463 8389 ft 161 kts 243°
2026-05-01 10:00 48.65026 10.27877 8386 ft 162 kts 244°
2026-05-01 10:01 48.64621 10.26296 8388 ft 161 kts 243°
2026-05-01 10:01 48.64217 10.24697 8373 ft 163 kts 244°
2026-05-01 10:01 48.63806 10.23128 8385 ft 160 kts 244°
2026-05-01 10:01 48.63388 10.21576 8365 ft 160 kts 243°
2026-05-01 10:02 48.62981 10.20037 8375 ft 157 kts 243°
2026-05-01 10:02 48.62576 10.18497 8370 ft 158 kts 244°
2026-05-01 10:02 48.62160 10.16959 8373 ft 158 kts 244°
2026-05-01 10:02 48.61741 10.15432 8369 ft 155 kts 244°
2026-05-01 10:03 48.61324 10.13941 8367 ft 153 kts 244°
2026-05-01 10:03 48.60909 10.12461 8373 ft 154 kts 244°
2026-05-01 10:03 48.60498 10.10948 8370 ft 157 kts 244°
2026-05-01 10:03 48.60077 10.09420 8359 ft 158 kts 243°
2026-05-01 10:04 48.59664 10.07868 8357 ft 159 kts 243°
2026-05-01 10:04 48.59254 10.06330 8354 ft 156 kts 244°
2026-05-01 10:04 48.58842 10.04826 8355 ft 154 kts 244°
2026-05-01 10:04 48.58438 10.03327 8357 ft 155 kts 244°
2026-05-01 10:05 48.58033 10.01787 8357 ft 160 kts 243°
2026-05-01 10:05 48.57620 10.00230 8362 ft 160 kts 244°
2026-05-01 10:05 48.57209 9.98687 8353 ft 157 kts 243°
2026-05-01 10:05 48.56820 9.97140 8354 ft 158 kts 243°
2026-05-01 10:06 48.56433 9.95586 8363 ft 157 kts 244°
2026-05-01 10:06 48.56020 9.94074 8355 ft 155 kts 244°
2026-05-01 10:06 48.55623 9.92549 8351 ft 158 kts 244°
2026-05-01 10:06 48.55234 9.90991 8341 ft 159 kts 244°
2026-05-01 10:07 48.54825 9.89462 8340 ft 157 kts 242°
2026-05-01 10:07 48.54425 9.87931 8340 ft 156 kts 244°
2026-05-01 10:07 48.54025 9.86451 8342 ft 155 kts 245°
2026-05-01 10:07 48.53610 9.84958 8340 ft 153 kts 244°
2026-05-01 10:08 48.52799 9.81985 8343 ft 157 kts 243°
2026-05-01 10:08 48.52406 9.80452 8347 ft 159 kts 243°
2026-05-01 10:08 48.52010 9.78898 8351 ft 160 kts 242°
2026-05-01 10:09 48.51601 9.77354 8346 ft 158 kts 242°
2026-05-01 10:09 48.51185 9.75812 8349 ft 159 kts 244°
2026-05-01 10:09 48.50789 9.74242 8345 ft 161 kts 243°
2026-05-01 10:09 48.50402 9.72651 8344 ft 162 kts 244°
2026-05-01 10:10 48.50016 9.71054 8335 ft 161 kts 244°
2026-05-01 10:10 48.49623 9.69487 8340 ft 159 kts 245°
2026-05-01 10:10 48.48840 9.66462 8331 ft 142 kts 240°
2026-05-01 10:11 48.48494 9.65144 8331 ft 130 kts 243°
2026-05-01 10:11 48.48192 9.63881 8339 ft 127 kts 244°
2026-05-01 10:11 48.47912 9.62635 8333 ft 125 kts 244°
2026-05-01 10:11 48.47628 9.61414 8334 ft 123 kts 244°
2026-05-01 10:12 48.47361 9.60198 8361 ft 122 kts 244°
2026-05-01 10:12 48.47244 9.59687 8362 ft 118 kts 246°